createdAt,value
2018-05-29T00:06:51.305Z,12.0
2018-05-29T00:17:05.434Z,15.7
2018-05-29T00:27:19.621Z,14.6
2018-05-29T00:38:05.076Z,16.6
2018-05-29T00:48:50.373Z,17.2
2018-05-29T00:59:06.818Z,11.8
2018-05-29T01:09:20.630Z,15.5
2018-05-29T01:19:32.909Z,17.6
2018-05-29T01:29:48.190Z,12.6
2018-05-29T01:40:00.388Z,15.8
2018-05-29T01:50:14.849Z,14.3
2018-05-29T02:00:31.849Z,14.7
2018-05-29T02:10:46.101Z,16.4
2018-05-29T02:20:59.467Z,18.4
2018-05-29T02:31:13.479Z,18.5
2018-05-29T02:41:59.276Z,20.2
2018-05-29T02:52:11.057Z,14.5
2018-05-29T03:02:56.656Z,21.0
2018-05-29T03:13:08.903Z,13.6
2018-05-29T03:23:54.467Z,22.5
2018-05-29T03:34:07.745Z,15.5
2018-05-29T03:44:22.121Z,16.1
2018-05-29T03:54:36.360Z,20.2
2018-05-29T04:05:01.925Z,16.5
2018-05-29T04:15:17.563Z,21.0
2018-05-29T04:25:32.659Z,19.1
2018-05-29T04:35:46.646Z,22.0
2018-05-29T04:45:59.077Z,20.7
2018-05-29T04:57:21.278Z,21.2
2018-05-29T05:07:36.167Z,23.6
2018-05-29T05:17:50.182Z,22.8
2018-05-29T05:28:35.609Z,22.8
2018-05-29T05:38:50.404Z,20.4
2018-05-29T05:49:03.158Z,20.9
2018-05-29T05:59:40.308Z,16.4
2018-05-29T06:09:52.015Z,22.9
2018-05-29T06:20:37.854Z,23.4
2018-05-29T06:31:23.327Z,22.8
2018-05-29T06:42:10.251Z,18.5
2018-05-29T06:52:24.581Z,16.4
2018-05-29T07:02:36.960Z,14.3
2018-05-29T07:12:54.094Z,15.1
2018-05-29T07:23:39.549Z,15.1
2018-05-29T07:33:50.841Z,11.4
2018-05-29T07:44:36.473Z,13.1
2018-05-29T07:54:51.088Z,10.5
2018-05-29T08:05:36.940Z,12.4
2018-05-29T08:15:52.480Z,11.2
2018-05-29T08:26:50.394Z,10.7
2018-05-29T08:37:05.125Z,7.3
2018-05-29T08:47:34.393Z,7.9
2018-05-29T08:58:19.740Z,9.0
2018-05-29T09:09:05.677Z,6.5
2018-05-29T09:19:53.169Z,6.0
2018-05-29T09:30:04.805Z,4.2
2018-05-29T09:40:51.214Z,5.2
2018-05-29T09:51:03.762Z,3.5
2018-05-29T10:01:49.393Z,3.4
2018-05-29T10:12:35.389Z,3.2
2018-05-29T10:23:20.754Z,2.1
2018-05-29T10:34:06.880Z,2.6
2018-05-29T10:44:22.139Z,2.1
2018-05-29T10:55:31.990Z,2.6
2018-05-29T11:06:30.456Z,2.8
2018-05-29T11:17:48.249Z,2.5
2018-05-29T11:28:27.520Z,2.3
2018-05-29T11:38:55.270Z,3.9
2018-05-29T11:59:57.386Z,2.4
2018-05-29T12:10:11.727Z,3.2
2018-05-29T12:20:25.811Z,3.2
2018-05-29T12:30:40.252Z,3.4
2018-05-29T12:41:29.344Z,3.1
2018-05-29T12:51:44.719Z,4.2
2018-05-29T13:02:02.765Z,4.0
2018-05-29T13:12:17.758Z,3.2
2018-05-29T13:23:03.248Z,4.6
2018-05-29T13:33:23.583Z,3.1
2018-05-29T13:44:13.706Z,3.8
2018-05-29T13:54:58.751Z,3.6
2018-05-29T14:05:47.796Z,4.7
2018-05-29T14:16:39.940Z,3.3
2018-05-29T14:33:17.063Z,3.0
2018-05-29T14:43:31.759Z,3.1
2018-05-29T14:54:23.502Z,5.1
2018-05-29T15:06:01.642Z,5.4
2018-05-29T15:16:16.179Z,4.4
2018-05-29T15:26:30.222Z,4.2
2018-05-29T15:36:42.511Z,3.3
2018-05-29T15:46:58.441Z,2.1
2018-05-29T15:57:12.946Z,3.8
2018-05-29T16:08:02.514Z,4.4
2018-05-29T16:18:48.244Z,4.4
2018-05-29T16:29:36.719Z,5.1
2018-05-29T16:40:44.796Z,5.8
2018-05-29T16:51:42.000Z,6.9
2018-05-29T17:01:59.310Z,6.3
2018-05-29T17:12:53.550Z,9.5
2018-05-29T17:23:09.501Z,7.5
2018-05-29T17:33:23.327Z,5.7
2018-05-29T17:43:39.836Z,7.2
2018-05-29T17:53:53.979Z,7.9
2018-05-29T18:04:09.529Z,9.4
2018-05-29T18:14:23.549Z,6.9
2018-05-29T18:24:37.914Z,5.0
2018-05-29T18:34:49.905Z,3.4
2018-05-29T18:45:41.902Z,6.8
2018-05-29T18:56:30.929Z,6.3
2018-05-29T19:08:14.454Z,8.9
2018-05-29T19:19:16.966Z,8.7
2018-05-29T19:30:05.210Z,11.0
2018-05-29T19:40:58.838Z,14.3
2018-05-29T19:53:32.160Z,12.1
2018-05-29T20:03:46.611Z,10.7
2018-05-29T20:15:32.792Z,15.5
2018-05-29T20:25:50.211Z,11.2
2018-05-29T20:37:21.513Z,12.4
2018-05-29T20:57:18.525Z,16.3
2018-05-29T21:08:02.145Z,13.7
2018-05-29T21:20:22.348Z,17.9
2018-05-29T21:32:06.953Z,11.3
2018-05-29T21:42:27.327Z,12.0
2018-05-29T21:53:00.657Z,11.4
2018-05-29T22:03:17.732Z,13.3
2018-05-29T22:14:03.736Z,17.1
2018-05-29T22:24:23.071Z,14.1
2018-05-29T22:34:37.137Z,17.2
2018-05-29T23:05:27.681Z,20.0
2018-05-29T23:15:47.560Z,16.1
2018-05-29T23:26:19.176Z,16.2
2018-05-29T23:36:33.114Z,12.2
2018-05-29T23:47:20.090Z,18.7
2018-05-29T23:57:53.299Z,15.1
